createdAt,value
2022-09-17T00:00:02.143Z,99555.66
2022-09-17T00:03:00.691Z,99556.91
2022-09-17T00:05:32.631Z,99558.53
2022-09-17T00:08:05.592Z,99562.64
2022-09-17T00:10:40.933Z,99560.33
2022-09-17T00:13:13.320Z,99564.39
2022-09-17T00:15:46.874Z,99560.95
2022-09-17T00:18:18.808Z,99561.54
2022-09-17T00:20:50.630Z,99566.16
2022-09-17T00:23:22.643Z,99562.79
2022-09-17T00:25:54.414Z,99564.15
2022-09-17T00:28:26.315Z,99567.72
2022-09-17T00:30:58.122Z,99567.02
2022-09-17T00:33:30.221Z,99565.64
2022-09-17T00:36:03.869Z,99566.84
2022-09-17T00:38:36.487Z,99568.98
2022-09-17T00:41:09.154Z,99565.15
2022-09-17T00:43:44.401Z,99566.44
2022-09-17T00:46:27.836Z,99568.91
2022-09-17T00:49:03.149Z,99570.01
2022-09-17T00:51:38.750Z,99571.45
2022-09-17T00:54:12.939Z,99574.30
2022-09-17T00:56:44.924Z,99571.86
2022-09-17T00:59:17.688Z,99571.72
2022-09-17T01:01:50.099Z,99571.77
2022-09-17T01:04:24.365Z,99572.52
2022-09-17T01:07:07.663Z,99575.59
2022-09-17T01:09:51.731Z,99579.68
2022-09-17T01:12:54.326Z,99575.65
2022-09-17T01:15:31.975Z,99579.66
2022-09-17T01:18:29.244Z,99576.37
2022-09-17T01:21:27.983Z,99575.52
2022-09-17T01:24:23.160Z,99575.02
2022-09-17T01:27:21.007Z,99575.10
2022-09-17T01:30:23.304Z,99575.14
2022-09-17T01:33:06.489Z,99574.10
2022-09-17T01:35:49.812Z,99572.23
2022-09-17T01:38:28.460Z,99572.61
2022-09-17T01:41:08.229Z,99572.65
2022-09-17T01:43:49.740Z,99570.03
2022-09-17T01:46:25.221Z,99571.15
2022-09-17T01:49:03.345Z,99571.73
2022-09-17T01:51:41.046Z,99573.51
2022-09-17T01:54:20.359Z,99572.29
2022-09-17T01:56:58.064Z,99570.45
2022-09-17T01:59:35.446Z,99571.48
2022-09-17T02:02:14.499Z,99569.27
2022-09-17T02:04:56.504Z,99567.36
2022-09-17T02:07:30.175Z,99569.02
2022-09-17T02:10:07.044Z,99573.48
2022-09-17T02:12:45.047Z,99576.21
2022-09-17T02:15:22.635Z,99578.58
2022-09-17T02:17:58.589Z,99581.23
2022-09-17T02:20:36.846Z,99582.57
2022-09-17T02:23:14.300Z,99580.35
2022-09-17T02:25:51.668Z,99579.70
2022-09-17T02:28:29.393Z,99579.77
2022-09-17T02:31:01.324Z,99580.86
2022-09-17T02:33:35.238Z,99578.20
2022-09-17T02:36:07.499Z,99578.09
2022-09-17T02:38:42.559Z,99581.30
2022-09-17T02:41:19.378Z,99586.50
2022-09-17T02:44:01.246Z,99588.23
2022-09-17T02:46:48.540Z,99586.65
2022-09-17T02:49:39.929Z,99587.39
2022-09-17T02:52:19.315Z,99588.98
2022-09-17T02:54:58.998Z,99589.10
2022-09-17T02:57:39.306Z,99592.77
2022-09-17T03:00:16.036Z,99588.15
2022-09-17T03:02:51.898Z,99589.52
2022-09-17T03:05:25.861Z,99584.75
2022-09-17T03:08:00.581Z,99591.34
2022-09-17T03:10:33.830Z,99588.34
2022-09-17T03:13:05.746Z,99593.24
2022-09-17T03:15:37.534Z,99594.57
2022-09-17T03:18:09.393Z,99591.34
2022-09-17T03:20:41.196Z,99590.51
2022-09-17T03:23:13.040Z,99585.39
2022-09-17T03:25:44.799Z,99586.52
2022-09-17T03:28:16.696Z,99578.89
2022-09-17T03:30:48.579Z,99578.63
2022-09-17T03:33:20.939Z,99576.09
2022-09-17T03:35:52.824Z,99578.70
2022-09-17T03:38:25.113Z,99578.08
2022-09-17T03:41:05.074Z,99578.38
2022-09-17T03:43:37.532Z,99575.64
2022-09-17T03:46:09.523Z,99574.17
2022-09-17T03:48:41.882Z,99571.63
2022-09-17T03:51:13.834Z,99570.15
2022-09-17T03:53:45.873Z,99564.91
2022-09-17T03:56:18.020Z,99567.65
2022-09-17T03:58:53.361Z,99564.73
2022-09-17T04:01:25.365Z,99563.97
2022-09-17T04:03:57.667Z,99564.61
2022-09-17T04:06:30.475Z,99562.59
2022-09-17T04:09:04.448Z,99561.45
2022-09-17T04:11:36.699Z,99556.43
2022-09-17T04:14:08.630Z,99557.75
2022-09-17T04:16:40.413Z,99559.77
2022-09-17T04:19:14.512Z,99555.84
2022-09-17T04:21:48.503Z,99553.28
2022-09-17T04:24:21.120Z,99554.96
2022-09-17T04:27:17.665Z,99560.12
2022-09-17T04:30:03.409Z,99559.34
2022-09-17T04:32:35.447Z,99560.30
2022-09-17T04:35:08.488Z,99567.64
2022-09-17T04:37:40.368Z,99566.35
2022-09-17T04:40:13.363Z,99564.63
2022-09-17T04:42:45.292Z,99564.47
2022-09-17T04:45:17.548Z,99565.77
2022-09-17T04:47:51.070Z,99571.87
2022-09-17T04:50:23.579Z,99571.45
2022-09-17T04:52:55.470Z,99576.98
2022-09-17T04:55:27.830Z,99583.08
2022-09-17T04:58:00.362Z,99583.91
2022-09-17T05:00:32.748Z,99580.32
2022-09-17T05:03:04.877Z,99581.28
2022-09-17T05:05:36.919Z,99585.91
2022-09-17T05:08:09.518Z,99591.08
2022-09-17T05:10:41.337Z,99590.64
2022-09-17T05:13:13.310Z,99595.84
2022-09-17T05:15:45.790Z,99594.34
2022-09-17T05:18:17.891Z,99594.11
2022-09-17T05:20:49.669Z,99598.70
2022-09-17T05:23:21.405Z,99605.58
2022-09-17T05:25:53.904Z,99603.45
2022-09-17T05:28:25.829Z,99602.36
2022-09-17T05:30:59.724Z,99604.84
2022-09-17T05:33:32.486Z,99607.50
2022-09-17T05:36:04.998Z,99609.59
2022-09-17T05:38:37.013Z,99614.66
2022-09-17T05:41:09.612Z,99617.52
2022-09-17T05:43:41.569Z,99623.25
2022-09-17T05:46:13.738Z,99622.79
2022-09-17T05:48:45.582Z,99619.41
2022-09-17T05:51:18.896Z,99616.01
2022-09-17T05:53:50.889Z,99611.55
2022-09-17T05:56:24.173Z,99607.51
2022-09-17T05:58:59.295Z,99605.93
2022-09-17T06:01:31.392Z,99605.95
2022-09-17T06:04:04.792Z,99600.08
2022-09-17T06:06:37.926Z,99603.14
2022-09-17T06:09:10.620Z,99604.50
2022-09-17T06:11:42.427Z,99607.69
2022-09-17T06:14:14.403Z,99609.54
2022-09-17T06:16:46.258Z,99605.70
2022-09-17T06:19:18.390Z,99604.22
2022-09-17T06:21:51.755Z,99607.35
2022-09-17T06:24:32.526Z,99608.10
2022-09-17T06:27:05.116Z,99613.95
2022-09-17T06:29:36.935Z,99613.29
2022-09-17T06:32:13.107Z,99615.09
2022-09-17T06:34:45.094Z,99616.55
2022-09-17T06:37:17.213Z,99614.73
2022-09-17T06:39:51.303Z,99618.48
2022-09-17T06:42:25.685Z,99616.79
2022-09-17T06:45:00.366Z,99610.05
2022-09-17T06:47:34.080Z,99608.97
2022-09-17T06:50:06.925Z,99600.16
2022-09-17T06:52:38.876Z,99603.83
2022-09-17T06:55:11.883Z,99610.11
2022-09-17T06:57:44.028Z,99614.60
2022-09-17T07:00:16.965Z,99620.70
2022-09-17T07:02:57.779Z,99616.92
2022-09-17T07:05:33.055Z,99618.27
2022-09-17T07:08:07.312Z,99616.02
2022-09-17T07:10:39.571Z,99615.78
2022-09-17T07:13:11.841Z,99615.17
2022-09-17T07:15:43.758Z,99618.02
2022-09-17T07:18:16.144Z,99618.36
2022-09-17T07:20:55.831Z,99620.38
2022-09-17T07:23:28.824Z,99621.16
2022-09-17T07:26:02.767Z,99622.30
2022-09-17T07:28:34.747Z,99621.12
2022-09-17T07:31:10.258Z,99621.64
2022-09-17T07:33:45.327Z,99624.99
2022-09-17T07:36:18.813Z,99622.92
2022-09-17T07:38:51.644Z,99623.30
2022-09-17T07:41:23.505Z,99625.13
2022-09-17T07:43:56.318Z,99624.61
2022-09-17T07:46:28.209Z,99630.15
2022-09-17T07:49:00.573Z,99630.73
2022-09-17T07:51:32.673Z,99639.67
2022-09-17T07:54:06.220Z,99642.00
2022-09-17T07:56:38.521Z,99641.33
2022-09-17T07:59:11.881Z,99644.95
2022-09-17T08:01:43.727Z,99649.83
2022-09-17T08:04:15.944Z,99651.36
2022-09-17T08:06:49.694Z,99648.16
2022-09-17T08:09:22.754Z,99655.58
2022-09-17T08:11:56.472Z,99657.83
2022-09-17T08:14:30.153Z,99655.73
2022-09-17T08:17:02.213Z,99655.81
2022-09-17T08:19:34.902Z,99654.66
2022-09-17T08:22:06.918Z,99655.59
2022-09-17T08:24:38.962Z,99652.79
2022-09-17T08:27:10.934Z,99652.16
2022-09-17T08:29:42.983Z,99652.38
2022-09-17T08:32:14.859Z,99650.09
2022-09-17T08:34:46.908Z,99650.40
2022-09-17T08:37:18.717Z,99650.50
2022-09-17T08:39:50.536Z,99652.63
2022-09-17T08:42:28.554Z,99654.40
2022-09-17T08:45:03.896Z,99655.63
2022-09-17T08:47:38.622Z,99654.62
2022-09-17T08:50:18.044Z,99654.42
2022-09-17T08:53:24.841Z,99651.81
2022-09-17T08:56:03.624Z,99650.52
2022-09-17T08:58:56.767Z,99650.84
2022-09-17T09:01:36.360Z,99650.12
2022-09-17T09:04:27.142Z,99654.39
2022-09-17T09:07:08.467Z,99652.63
2022-09-17T09:09:46.855Z,99654.30
2022-09-17T09:12:24.426Z,99658.86
2022-09-17T09:15:01.251Z,99657.24
2022-09-17T09:17:40.263Z,99657.19
2022-09-17T09:20:23.211Z,99660.30
2022-09-17T09:22:56.168Z,99661.49
2022-09-17T09:25:31.993Z,99662.36
2022-09-17T09:28:16.775Z,99666.39
2022-09-17T09:31:03.640Z,99670.62
2022-09-17T09:33:44.382Z,99674.64
2022-09-17T09:36:22.165Z,99673.28
2022-09-17T09:39:01.871Z,99677.66
2022-09-17T09:41:41.476Z,99674.83
2022-09-17T09:44:15.526Z,99672.63
2022-09-17T09:47:04.507Z,99670.75
2022-09-17T09:49:50.314Z,99669.13
2022-09-17T09:52:36.230Z,99671.15
2022-09-17T09:55:32.841Z,99671.75
2022-09-17T09:58:19.037Z,99675.35
2022-09-17T10:00:52.226Z,99673.80
2022-09-17T10:03:27.775Z,99677.29
2022-09-17T10:06:02.125Z,99676.79
2022-09-17T10:08:36.814Z,99681.15
2022-09-17T10:11:21.720Z,99688.13
2022-09-17T10:13:54.171Z,99692.91
2022-09-17T10:16:29.399Z,99696.34
2022-09-17T10:19:15.425Z,99703.08
2022-09-17T10:21:47.308Z,99707.77
2022-09-17T10:24:26.955Z,99711.65
2022-09-17T10:27:07.210Z,99712.23
2022-09-17T10:29:43.812Z,99719.11
2022-09-17T10:32:19.532Z,99719.59
2022-09-17T10:35:05.151Z,99721.23
2022-09-17T10:40:32.391Z,99731.75
2022-09-17T10:43:24.959Z,99734.85
2022-09-17T10:46:01.411Z,99741.94
2022-09-17T10:48:42.094Z,99741.57
2022-09-17T10:51:24.256Z,99744.09
2022-09-17T10:54:16.985Z,99749.12
2022-09-17T10:56:54.889Z,99742.09
2022-09-17T10:59:59.006Z,99739.83
2022-09-17T11:03:01.443Z,99740.52
2022-09-17T11:05:56.788Z,99739.91
2022-09-17T11:08:35.446Z,99743.35
2022-09-17T11:11:11.845Z,99744.83
2022-09-17T11:13:58.710Z,99742.85
2022-09-17T11:16:41.754Z,99736.72
2022-09-17T11:19:28.354Z,99732.41
2022-09-17T11:22:07.106Z,99727.80
2022-09-17T11:25:04.611Z,99725.41
2022-09-17T11:27:49.435Z,99725.70
2022-09-17T11:30:23.279Z,99727.04
2022-09-17T11:33:09.667Z,99717.98
2022-09-17T11:35:48.153Z,99718.75
2022-09-17T11:38:27.297Z,99715.56
2022-09-17T11:41:05.849Z,99726.56
2022-09-17T11:43:43.356Z,99727.41
2022-09-17T11:46:21.020Z,99723.09
2022-09-17T11:49:01.068Z,99718.02
2022-09-17T11:51:38.201Z,99710.23
2022-09-17T11:54:18.267Z,99702.48
2022-09-17T11:56:53.414Z,99688.33
2022-09-17T11:59:32.726Z,99679.90
2022-09-17T12:02:08.813Z,99671.92
2022-09-17T12:04:47.353Z,99669.05
2022-09-17T12:07:33.917Z,99664.95
2022-09-17T12:10:29.949Z,99667.39
2022-09-17T12:13:13.810Z,99673.61
2022-09-17T12:15:53.426Z,99667.19
2022-09-17T12:18:44.637Z,99662.25
2022-09-17T12:21:22.826Z,99653.56
2022-09-17T12:24:00.329Z,99649.93
2022-09-17T12:26:49.408Z,99649.23
2022-09-17T12:29:44.110Z,99651.73
2022-09-17T12:32:41.073Z,99656.52
2022-09-17T12:35:46.396Z,99665.09
2022-09-17T12:38:37.624Z,99669.20
2022-09-17T12:41:18.063Z,99671.06
2022-09-17T12:44:11.703Z,99671.02
2022-09-17T12:47:17.144Z,99670.46
2022-09-17T12:50:06.381Z,99664.23
2022-09-17T12:52:52.712Z,99659.73
2022-09-17T12:55:45.289Z,99657.94
2022-09-17T12:58:29.744Z,99652.98
2022-09-17T13:01:09.022Z,99655.63
2022-09-17T13:03:46.226Z,99653.06
2022-09-17T13:07:00.580Z,99648.88
2022-09-17T13:09:59.431Z,99638.75
2022-09-17T13:12:38.950Z,99636.31
2022-09-17T13:15:39.356Z,99626.31
2022-09-17T13:18:26.682Z,99617.04
2022-09-17T13:21:05.678Z,99618.13
2022-09-17T13:23:43.513Z,99618.90
2022-09-17T13:26:20.608Z,99614.55
2022-09-17T13:28:54.263Z,99613.54
2022-09-17T13:31:50.122Z,99615.00
2022-09-17T13:34:38.722Z,99614.20
2022-09-17T13:37:22.659Z,99609.77
2022-09-17T13:39:54.809Z,99614.71
2022-09-17T13:42:29.388Z,99615.77
2022-09-17T13:45:13.203Z,99615.49
2022-09-17T13:47:53.640Z,99617.95
2022-09-17T13:50:33.320Z,99620.71
2022-09-17T13:53:18.495Z,99619.54
2022-09-17T13:55:54.765Z,99627.09
2022-09-17T13:58:30.283Z,99630.30
2022-09-17T14:01:04.699Z,99634.31
2022-09-17T14:03:56.878Z,99641.17
2022-09-17T14:06:53.643Z,99647.35
2022-09-17T14:09:55.286Z,99640.35
2022-09-17T14:13:22.047Z,99638.98
2022-09-17T14:16:04.041Z,99634.48
2022-09-17T14:18:43.487Z,99637.64
2022-09-17T14:21:28.454Z,99636.02
2022-09-17T14:24:02.510Z,99632.49
2022-09-17T14:26:50.786Z,99637.36
2022-09-17T14:29:43.825Z,99645.31
2022-09-17T14:32:20.942Z,99647.89
2022-09-17T14:34:53.053Z,99648.09
2022-09-17T14:37:25.548Z,99647.54
2022-09-17T14:39:57.698Z,99648.27
2022-09-17T14:42:36.949Z,99648.34
2022-09-17T14:45:17.105Z,99650.79
2022-09-17T14:47:49.013Z,99650.88
2022-09-17T14:50:26.322Z,99654.77
2022-09-17T14:52:58.170Z,99655.61
2022-09-17T14:55:32.394Z,99651.02
2022-09-17T14:58:04.935Z,99648.15
2022-09-17T15:00:39.029Z,99646.03
2022-09-17T15:03:24.161Z,99647.91
2022-09-17T15:05:56.450Z,99645.69
2022-09-17T15:08:30.346Z,99649.67
2022-09-17T15:11:04.993Z,99656.34
2022-09-17T15:13:39.456Z,99655.23
2022-09-17T15:16:19.697Z,99663.69
2022-09-17T15:18:53.661Z,99659.25
2022-09-17T15:21:35.450Z,99659.64
2022-09-17T15:24:19.966Z,99662.34
2022-09-17T15:26:54.757Z,99660.77
2022-09-17T15:29:31.246Z,99662.75
2022-09-17T15:32:06.570Z,99656.06
2022-09-17T15:34:40.017Z,99658.92
2022-09-17T15:37:20.803Z,99653.80
2022-09-17T15:39:56.749Z,99655.60
2022-09-17T15:42:31.246Z,99652.44
2022-09-17T15:45:19.745Z,99650.09
2022-09-17T15:47:56.702Z,99648.90
2022-09-17T15:50:30.381Z,99647.23
2022-09-17T15:53:16.328Z,99647.68
2022-09-17T15:55:59.458Z,99646.20
2022-09-17T15:58:34.528Z,99645.08
2022-09-17T16:01:40.812Z,99641.31
2022-09-17T16:04:21.491Z,99648.72
2022-09-17T16:06:57.758Z,99649.73
2022-09-17T16:09:48.875Z,99654.80
2022-09-17T16:12:23.507Z,99657.19
2022-09-17T16:14:56.927Z,99669.54
2022-09-17T16:17:36.637Z,99677.30
2022-09-17T16:20:15.846Z,99680.65
2022-09-17T16:22:49.067Z,99684.00
2022-09-17T16:25:23.953Z,99685.81
2022-09-17T16:27:59.604Z,99686.23
2022-09-17T16:30:31.589Z,99684.27
2022-09-17T16:33:06.876Z,99681.83
2022-09-17T16:35:39.218Z,99684.27
2022-09-17T16:38:12.989Z,99682.48
2022-09-17T16:40:47.649Z,99681.36
2022-09-17T16:43:20.458Z,99682.17
2022-09-17T16:46:02.580Z,99682.38
2022-09-17T16:48:35.421Z,99683.10
2022-09-17T16:51:11.286Z,99685.78
2022-09-17T16:53:43.776Z,99694.63
2022-09-17T16:56:17.491Z,99701.67
2022-09-17T16:58:49.592Z,99709.83
2022-09-17T17:01:21.501Z,99715.55
2022-09-17T17:03:55.877Z,99718.52
2022-09-17T17:06:27.986Z,99724.12
2022-09-17T17:09:02.042Z,99723.23
2022-09-17T17:11:34.006Z,99724.98
2022-09-17T17:14:06.420Z,99718.25
2022-09-17T17:16:40.799Z,99711.52
2022-09-17T17:19:12.910Z,99716.76
2022-09-17T17:21:47.183Z,99726.23
2022-09-17T17:24:19.392Z,99736.05
2022-09-17T17:26:51.958Z,99745.55
2022-09-17T17:29:23.938Z,99752.41
2022-09-17T17:31:55.862Z,99755.58
2022-09-17T17:34:28.019Z,99748.48
2022-09-17T17:37:00.636Z,99745.52
2022-09-17T17:39:33.264Z,99742.02
2022-09-17T17:42:05.654Z,99737.14
2022-09-17T17:44:37.727Z,99737.20
2022-09-17T17:47:09.922Z,99739.26
2022-09-17T17:49:41.837Z,99743.58
2022-09-17T17:52:13.737Z,99742.27
2022-09-17T17:54:48.671Z,99747.37
2022-09-17T17:57:20.695Z,99747.36
2022-09-17T17:59:52.615Z,99750.65
2022-09-17T18:02:25.061Z,99747.64
2022-09-17T18:04:59.765Z,99741.81
2022-09-17T18:07:35.409Z,99743.19
2022-09-17T18:10:08.895Z,99743.30
2022-09-17T18:12:40.866Z,99743.09
2022-09-17T18:15:13.740Z,99743.61
2022-09-17T18:17:48.236Z,99745.55
2022-09-17T18:20:22.967Z,99747.27
2022-09-17T18:22:56.545Z,99746.17
2022-09-17T18:25:28.842Z,99747.05
2022-09-17T18:28:01.086Z,99751.23
2022-09-17T18:30:33.316Z,99753.29
2022-09-17T18:33:07.824Z,99752.55
2022-09-17T18:41:57.482Z,99752.11
2022-09-17T18:44:32.365Z,99748.75
2022-09-17T18:47:04.357Z,99749.30
2022-09-17T18:49:36.469Z,99749.11
2022-09-17T18:52:08.502Z,99747.89
2022-09-17T18:58:21.952Z,99747.25
2022-09-17T19:00:55.326Z,99747.93
2022-09-17T19:03:46.722Z,99747.92
2022-09-17T19:06:21.099Z,99752.05
2022-09-17T19:09:00.829Z,99748.91
2022-09-17T19:11:44.267Z,99749.45
2022-09-17T19:14:44.691Z,99747.12
2022-09-17T19:28:13.674Z,99753.73
2022-09-17T19:31:04.802Z,99755.69
2022-09-17T19:33:36.678Z,99758.66
2022-09-17T19:36:10.191Z,99759.23
2022-09-17T19:38:49.089Z,99757.48
2022-09-17T19:41:19.633Z,99754.70
2022-09-17T19:44:48.488Z,99755.14
2022-09-17T19:54:50.085Z,99741.13
2022-09-17T19:57:21.265Z,99742.68
2022-09-17T19:59:50.512Z,99740.79
2022-09-17T20:02:20.982Z,99744.38
2022-09-17T20:04:49.640Z,99742.27
2022-09-17T20:07:19.419Z,99737.60
2022-09-17T20:09:47.928Z,99738.42
2022-09-17T20:15:36.813Z,99728.50
2022-09-17T20:18:06.106Z,99740.02
2022-09-17T20:21:06.944Z,99741.63
2022-09-17T20:23:52.330Z,99749.80
2022-09-17T20:26:22.963Z,99748.87
2022-09-17T20:28:52.823Z,99750.11
2022-09-17T20:31:23.074Z,99750.69
2022-09-17T20:33:53.658Z,99747.14
2022-09-17T20:36:24.755Z,99749.59
2022-09-17T20:41:42.913Z,99742.06
2022-09-17T20:44:11.523Z,99742.01
2022-09-17T20:46:40.832Z,99745.91
2022-09-17T20:49:09.619Z,99748.88
2022-09-17T20:52:27.677Z,99752.05
2022-09-17T21:07:06.577Z,99749.05
2022-09-17T21:09:41.151Z,99746.63
2022-09-17T21:15:07.526Z,99756.40
2022-09-17T21:17:36.024Z,99754.30
2022-09-17T21:20:39.830Z,99749.60
2022-09-17T21:23:14.508Z,99749.09
2022-09-17T21:25:49.442Z,99748.61
2022-09-17T21:28:19.864Z,99742.95
2022-09-17T21:30:48.938Z,99749.52
2022-09-17T21:33:21.554Z,99748.92
2022-09-17T21:35:50.720Z,99745.83
2022-09-17T21:38:19.733Z,99748.08
2022-09-17T21:40:56.394Z,99748.52
2022-09-17T21:43:25.683Z,99752.88
2022-09-17T21:46:01.873Z,99752.63
2022-09-17T21:48:31.492Z,99752.32
2022-09-17T21:51:05.572Z,99752.61
2022-09-17T21:53:34.125Z,99759.59
2022-09-17T21:56:05.132Z,99759.50
2022-09-17T21:58:34.410Z,99760.13
2022-09-17T22:01:08.110Z,99756.88
2022-09-17T22:03:37.414Z,99752.24
2022-09-17T22:06:08.456Z,99750.58
2022-09-17T22:08:36.885Z,99751.41
2022-09-17T22:11:08.983Z,99749.95
2022-09-17T22:13:38.022Z,99749.40
2022-09-17T22:16:09.714Z,99747.55
2022-09-17T22:18:38.487Z,99751.42
2022-09-17T22:21:14.721Z,99752.11
2022-09-17T22:23:43.210Z,99748.54
2022-09-17T22:26:12.214Z,99746.02
2022-09-17T22:28:40.673Z,99740.69
2022-09-17T22:31:11.103Z,99738.77
2022-09-17T22:33:41.509Z,99735.41
2022-09-17T22:36:11.944Z,99737.30
2022-09-17T22:38:41.509Z,99733.77
2022-09-17T22:41:14.534Z,99732.36
2022-09-17T22:43:42.935Z,99731.45
2022-09-17T22:46:13.384Z,99733.02
2022-09-17T22:48:41.912Z,99731.02
2022-09-17T22:51:10.884Z,99729.59
2022-09-17T22:53:40.587Z,99726.59
2022-09-17T22:56:11.855Z,99726.90
2022-09-17T22:58:40.657Z,99727.10
2022-09-17T23:01:11.837Z,99725.70
2022-09-17T23:03:41.781Z,99725.34
2022-09-17T23:06:12.645Z,99727.98
2022-09-17T23:08:41.628Z,99725.67
2022-09-17T23:11:18.402Z,99721.77
2022-09-17T23:13:47.618Z,99723.02
2022-09-17T23:16:16.849Z,99722.45
2022-09-17T23:18:45.484Z,99723.04
2022-09-17T23:21:16.191Z,99719.95
2022-09-17T23:23:47.507Z,99717.94
2022-09-17T23:26:18.354Z,99718.76
2022-09-17T23:28:47.106Z,99719.16
2022-09-17T23:31:18.029Z,99718.59
2022-09-17T23:33:47.147Z,99719.80
2022-09-17T23:36:18.672Z,99720.44
2022-09-17T23:38:48.739Z,99720.36
2022-09-17T23:41:24.810Z,99715.17
2022-09-17T23:43:55.769Z,99716.02
2022-09-17T23:46:26.086Z,99718.64
2022-09-17T23:48:54.925Z,99715.91
2022-09-17T23:51:24.983Z,99717.08
2022-09-17T23:53:55.043Z,99715.48
2022-09-17T23:56:25.001Z,99712.85
2022-09-17T23:58:54.499Z,99714.11
